sensor_id;sensor_type;location;lat;lon;timestamp;temperature;humidity
33831;DHT22;20137;48.834;8.732;2023-04-24T00:00:05;10.00;99.90
33831;DHT22;20137;48.834;8.732;2023-04-24T00:02:32;10.00;99.90
33831;DHT22;20137;48.834;8.732;2023-04-24T00:04:58;10.00;99.90
33831;DHT22;20137;48.834;8.732;2023-04-24T00:07:28;10.00;99.90
33831;DHT22;20137;48.834;8.732;2023-04-24T00:09:54;10.10;99.90
33831;DHT22;20137;48.834;8.732;2023-04-24T00:12:20;10.10;99.90
33831;DHT22;20137;48.834;8.732;2023-04-24T00:14:45;10.00;99.90
33831;DHT22;20137;48.834;8.732;2023-04-24T00:17:11;9.90;99.90
33831;DHT22;20137;48.834;8.732;2023-04-24T00:19:37;9.90;99.90
33831;DHT22;20137;48.834;8.732;2023-04-24T00:22:02;9.90;99.90
33831;DHT22;20137;48.834;8.732;2023-04-24T00:24:28;9.80;99.90
33831;DHT22;20137;48.834;8.732;2023-04-24T00:26:54;9.80;99.90
33831;DHT22;20137;48.834;8.732;2023-04-24T00:29:20;9.70;99.90
33831;DHT22;20137;48.834;8.732;2023-04-24T00:31:45;9.80;99.90
33831;DHT22;20137;48.834;8.732;2023-04-24T00:34:11;9.80;99.90
33831;DHT22;20137;48.834;8.732;2023-04-24T00:36:37;9.80;99.90
33831;DHT22;20137;48.834;8.732;2023-04-24T00:39:03;9.90;99.90
33831;DHT22;20137;48.834;8.732;2023-04-24T00:41:29;9.80;99.90
33831;DHT22;20137;48.834;8.732;2023-04-24T00:43:55;9.80;99.90
33831;DHT22;20137;48.834;8.732;2023-04-24T00:46:21;9.90;99.90
33831;DHT22;20137;48.834;8.732;2023-04-24T00:48:47;9.80;99.90
33831;DHT22;20137;48.834;8.732;2023-04-24T00:51:13;9.90;99.90
33831;DHT22;20137;48.834;8.732;2023-04-24T00:53:39;9.80;99.90
33831;DHT22;20137;48.834;8.732;2023-04-24T00:56:05;9.80;99.90
33831;DHT22;20137;48.834;8.732;2023-04-24T00:58:31;9.90;99.90
33831;DHT22;20137;48.834;8.732;2023-04-24T01:00:57;9.90;99.90
33831;DHT22;20137;48.834;8.732;2023-04-24T01:03:26;9.90;99.90
33831;DHT22;20137;48.834;8.732;2023-04-24T01:05:54;9.90;99.90
33831;DHT22;20137;48.834;8.732;2023-04-24T01:08:22;9.80;99.90
33831;DHT22;20137;48.834;8.732;2023-04-24T01:10:51;9.80;99.90
33831;DHT22;20137;48.834;8.732;2023-04-24T01:13:18;9.80;99.90
33831;DHT22;20137;48.834;8.732;2023-04-24T01:15:44;9.80;99.90
33831;DHT22;20137;48.834;8.732;2023-04-24T01:18:10;9.90;99.90
33831;DHT22;20137;48.834;8.732;2023-04-24T01:20:37;9.70;99.90
33831;DHT22;20137;48.834;8.732;2023-04-24T01:23:06;9.70;99.90
33831;DHT22;20137;48.834;8.732;2023-04-24T01:25:31;9.60;99.90
33831;DHT22;20137;48.834;8.732;2023-04-24T01:27:58;9.60;99.90
33831;DHT22;20137;48.834;8.732;2023-04-24T01:30:25;9.60;99.90
33831;DHT22;20137;48.834;8.732;2023-04-24T01:32:51;9.60;99.90
33831;DHT22;20137;48.834;8.732;2023-04-24T01:35:17;9.60;99.90
33831;DHT22;20137;48.834;8.732;2023-04-24T01:37:43;9.60;99.90
33831;DHT22;20137;48.834;8.732;2023-04-24T01:40:09;9.60;99.90
33831;DHT22;20137;48.834;8.732;2023-04-24T01:42:35;9.60;99.90
33831;DHT22;20137;48.834;8.732;2023-04-24T01:45:03;9.60;99.90
33831;DHT22;20137;48.834;8.732;2023-04-24T01:47:30;9.60;99.90
33831;DHT22;20137;48.834;8.732;2023-04-24T01:49:56;9.60;99.90
33831;DHT22;20137;48.834;8.732;2023-04-24T01:52:22;9.70;99.90
33831;DHT22;20137;48.834;8.732;2023-04-24T01:54:47;9.70;99.90
33831;DHT22;20137;48.834;8.732;2023-04-24T01:57:14;9.70;99.90
33831;DHT22;20137;48.834;8.732;2023-04-24T01:59:40;9.70;99.90
33831;DHT22;20137;48.834;8.732;2023-04-24T02:02:06;9.70;99.90
33831;DHT22;20137;48.834;8.732;2023-04-24T02:04:32;9.70;99.90
33831;DHT22;20137;48.834;8.732;2023-04-24T02:06:57;9.70;99.90
33831;DHT22;20137;48.834;8.732;2023-04-24T02:09:23;9.70;99.90
33831;DHT22;20137;48.834;8.732;2023-04-24T02:11:49;9.70;99.90
33831;DHT22;20137;48.834;8.732;2023-04-24T02:14:14;9.60;99.90
33831;DHT22;20137;48.834;8.732;2023-04-24T02:16:40;9.60;99.90
33831;DHT22;20137;48.834;8.732;2023-04-24T02:19:05;9.60;99.90
33831;DHT22;20137;48.834;8.732;2023-04-24T02:21:31;9.60;99.90
33831;DHT22;20137;48.834;8.732;2023-04-24T02:23:58;9.50;99.90
33831;DHT22;20137;48.834;8.732;2023-04-24T02:26:23;9.60;99.90
33831;DHT22;20137;48.834;8.732;2023-04-24T02:28:50;9.60;99.90
33831;DHT22;20137;48.834;8.732;2023-04-24T02:31:15;9.50;99.90
33831;DHT22;20137;48.834;8.732;2023-04-24T02:33:42;9.30;99.90
33831;DHT22;20137;48.834;8.732;2023-04-24T02:36:08;9.30;99.90
33831;DHT22;20137;48.834;8.732;2023-04-24T02:38:34;9.10;99.90
33831;DHT22;20137;48.834;8.732;2023-04-24T02:41:00;9.10;99.90
33831;DHT22;20137;48.834;8.732;2023-04-24T02:43:26;9.00;99.90
33831;DHT22;20137;48.834;8.732;2023-04-24T02:45:51;8.80;99.90
33831;DHT22;20137;48.834;8.732;2023-04-24T02:48:17;8.70;99.90
33831;DHT22;20137;48.834;8.732;2023-04-24T02:50:44;8.70;99.90
33831;DHT22;20137;48.834;8.732;2023-04-24T02:53:09;8.70;99.90
33831;DHT22;20137;48.834;8.732;2023-04-24T02:55:35;8.70;99.90
33831;DHT22;20137;48.834;8.732;2023-04-24T02:58:01;8.70;99.90
33831;DHT22;20137;48.834;8.732;2023-04-24T03:00:27;8.80;99.90
33831;DHT22;20137;48.834;8.732;2023-04-24T03:02:52;8.80;99.90
33831;DHT22;20137;48.834;8.732;2023-04-24T03:05:18;8.80;99.90
33831;DHT22;20137;48.834;8.732;2023-04-24T03:07:45;8.90;99.90
33831;DHT22;20137;48.834;8.732;2023-04-24T03:10:11;8.90;99.90
33831;DHT22;20137;48.834;8.732;2023-04-24T03:12:36;8.90;99.90
33831;DHT22;20137;48.834;8.732;2023-04-24T03:15:02;8.80;99.90
33831;DHT22;20137;48.834;8.732;2023-04-24T03:17:28;8.80;99.90
33831;DHT22;20137;48.834;8.732;2023-04-24T03:19:54;8.80;99.90
33831;DHT22;20137;48.834;8.732;2023-04-24T03:22:19;8.90;99.90
33831;DHT22;20137;48.834;8.732;2023-04-24T03:24:45;8.90;99.90
33831;DHT22;20137;48.834;8.732;2023-04-24T03:27:11;8.90;99.90
33831;DHT22;20137;48.834;8.732;2023-04-24T03:29:36;8.90;99.90
33831;DHT22;20137;48.834;8.732;2023-04-24T03:32:02;8.90;99.90
33831;DHT22;20137;48.834;8.732;2023-04-24T03:34:27;8.90;99.90
33831;DHT22;20137;48.834;8.732;2023-04-24T03:36:53;9.00;99.90
33831;DHT22;20137;48.834;8.732;2023-04-24T03:39:19;8.90;99.90
33831;DHT22;20137;48.834;8.732;2023-04-24T03:41:45;9.00;99.90
33831;DHT22;20137;48.834;8.732;2023-04-24T03:44:10;9.00;99.90
33831;DHT22;20137;48.834;8.732;2023-04-24T03:46:36;9.00;99.90
33831;DHT22;20137;48.834;8.732;2023-04-24T03:49:02;9.10;99.90
33831;DHT22;20137;48.834;8.732;2023-04-24T03:51:27;9.20;99.90
33831;DHT22;20137;48.834;8.732;2023-04-24T03:53:55;8.90;99.90
33831;DHT22;20137;48.834;8.732;2023-04-24T03:56:21;8.70;99.90
33831;DHT22;20137;48.834;8.732;2023-04-24T03:58:46;8.60;99.90
33831;DHT22;20137;48.834;8.732;2023-04-24T04:01:12;8.40;99.90
33831;DHT22;20137;48.834;8.732;2023-04-24T04:03:38;8.30;99.90
33831;DHT22;20137;48.834;8.732;2023-04-24T04:06:04;8.20;99.90
33831;DHT22;20137;48.834;8.732;2023-04-24T04:08:30;8.20;99.90
33831;DHT22;20137;48.834;8.732;2023-04-24T04:10:55;8.10;99.90
33831;DHT22;20137;48.834;8.732;2023-04-24T04:13:21;8.00;99.90
33831;DHT22;20137;48.834;8.732;2023-04-24T04:15:47;8.00;99.90
33831;DHT22;20137;48.834;8.732;2023-04-24T04:18:12;8.00;99.90
33831;DHT22;20137;48.834;8.732;2023-04-24T04:20:38;7.90;99.90
33831;DHT22;20137;48.834;8.732;2023-04-24T04:23:03;7.90;99.90
33831;DHT22;20137;48.834;8.732;2023-04-24T04:25:29;8.00;99.90
33831;DHT22;20137;48.834;8.732;2023-04-24T04:27:55;7.90;99.90
33831;DHT22;20137;48.834;8.732;2023-04-24T04:30:20;7.90;99.90
33831;DHT22;20137;48.834;8.732;2023-04-24T04:32:46;7.80;99.90
33831;DHT22;20137;48.834;8.732;2023-04-24T04:35:12;7.80;99.90
33831;DHT22;20137;48.834;8.732;2023-04-24T04:37:38;7.80;99.90
33831;DHT22;20137;48.834;8.732;2023-04-24T04:40:04;7.70;99.90
33831;DHT22;20137;48.834;8.732;2023-04-24T04:42:32;7.60;99.90
33831;DHT22;20137;48.834;8.732;2023-04-24T04:45:00;7.60;99.90
33831;DHT22;20137;48.834;8.732;2023-04-24T04:47:26;7.60;99.90
33831;DHT22;20137;48.834;8.732;2023-04-24T04:49:54;7.60;99.90
33831;DHT22;20137;48.834;8.732;2023-04-24T04:52:20;7.70;99.90
33831;DHT22;20137;48.834;8.732;2023-04-24T04:54:50;7.60;99.90
33831;DHT22;20137;48.834;8.732;2023-04-24T04:57:15;7.60;99.90
33831;DHT22;20137;48.834;8.732;2023-04-24T04:59:41;7.70;99.90
33831;DHT22;20137;48.834;8.732;2023-04-24T05:02:07;7.80;99.90
33831;DHT22;20137;48.834;8.732;2023-04-24T05:04:33;7.80;99.90
33831;DHT22;20137;48.834;8.732;2023-04-24T05:06:58;7.90;99.90
33831;DHT22;20137;48.834;8.732;2023-04-24T05:09:24;7.80;99.90
33831;DHT22;20137;48.834;8.732;2023-04-24T05:11:52;7.90;99.90
33831;DHT22;20137;48.834;8.732;2023-04-24T05:14:18;7.80;99.90
33831;DHT22;20137;48.834;8.732;2023-04-24T05:16:44;7.90;99.90
33831;DHT22;20137;48.834;8.732;2023-04-24T05:19:10;8.00;99.90
33831;DHT22;20137;48.834;8.732;2023-04-24T05:21:40;8.00;99.90
33831;DHT22;20137;48.834;8.732;2023-04-24T05:24:06;8.10;99.90
33831;DHT22;20137;48.834;8.732;2023-04-24T05:26:32;8.10;99.90
33831;DHT22;20137;48.834;8.732;2023-04-24T05:28:58;8.20;99.90
33831;DHT22;20137;48.834;8.732;2023-04-24T05:31:24;8.20;99.90
33831;DHT22;20137;48.834;8.732;2023-04-24T05:33:50;8.30;99.90
33831;DHT22;20137;48.834;8.732;2023-04-24T05:36:16;8.50;99.90
33831;DHT22;20137;48.834;8.732;2023-04-24T05:38:42;8.70;99.90
33831;DHT22;20137;48.834;8.732;2023-04-24T05:41:07;9.40;99.90
33831;DHT22;20137;48.834;8.732;2023-04-24T05:43:33;9.70;99.90
33831;DHT22;20137;48.834;8.732;2023-04-24T05:45:59;10.10;99.90
33831;DHT22;20137;48.834;8.732;2023-04-24T05:48:24;10.40;99.90
33831;DHT22;20137;48.834;8.732;2023-04-24T05:50:50;10.40;99.90
33831;DHT22;20137;48.834;8.732;2023-04-24T05:53:18;10.40;99.90
33831;DHT22;20137;48.834;8.732;2023-04-24T05:55:43;10.40;99.90
33831;DHT22;20137;48.834;8.732;2023-04-24T05:58:09;10.80;99.90
33831;DHT22;20137;48.834;8.732;2023-04-24T06:00:35;11.00;99.90
33831;DHT22;20137;48.834;8.732;2023-04-24T06:03:01;11.20;99.90
33831;DHT22;20137;48.834;8.732;2023-04-24T06:05:29;11.00;99.90
33831;DHT22;20137;48.834;8.732;2023-04-24T06:07:55;11.10;99.90
33831;DHT22;20137;48.834;8.732;2023-04-24T06:10:21;10.90;99.90
33831;DHT22;20137;48.834;8.732;2023-04-24T06:12:46;10.60;99.90
33831;DHT22;20137;48.834;8.732;2023-04-24T06:15:12;10.60;99.90
33831;DHT22;20137;48.834;8.732;2023-04-24T06:17:38;10.60;99.90
33831;DHT22;20137;48.834;8.732;2023-04-24T06:20:04;10.30;99.90
33831;DHT22;20137;48.834;8.732;2023-04-24T06:22:31;10.20;99.90
33831;DHT22;20137;48.834;8.732;2023-04-24T06:24:57;10.10;99.90
33831;DHT22;20137;48.834;8.732;2023-04-24T06:27:22;10.10;99.90
33831;DHT22;20137;48.834;8.732;2023-04-24T06:29:48;10.40;99.90
33831;DHT22;20137;48.834;8.732;2023-04-24T06:32:23;10.60;99.90
33831;DHT22;20137;48.834;8.732;2023-04-24T06:34:51;10.60;99.90
33831;DHT22;20137;48.834;8.732;2023-04-24T06:37:17;10.30;99.90
33831;DHT22;20137;48.834;8.732;2023-04-24T06:39:43;10.20;99.90
33831;DHT22;20137;48.834;8.732;2023-04-24T06:42:09;10.30;99.90
33831;DHT22;20137;48.834;8.732;2023-04-24T06:44:35;10.20;99.90
33831;DHT22;20137;48.834;8.732;2023-04-24T06:47:09;10.00;99.90
33831;DHT22;20137;48.834;8.732;2023-04-24T06:49:38;10.00;99.90
33831;DHT22;20137;48.834;8.732;2023-04-24T06:52:04;10.00;99.90
33831;DHT22;20137;48.834;8.732;2023-04-24T06:54:30;9.90;99.90
33831;DHT22;20137;48.834;8.732;2023-04-24T06:56:56;9.50;99.90
33831;DHT22;20137;48.834;8.732;2023-04-24T06:59:23;9.40;99.90
33831;DHT22;20137;48.834;8.732;2023-04-24T07:01:49;9.50;99.90
33831;DHT22;20137;48.834;8.732;2023-04-24T07:04:16;9.60;99.90
33831;DHT22;20137;48.834;8.732;2023-04-24T07:06:42;9.60;99.90
33831;DHT22;20137;48.834;8.732;2023-04-24T07:09:08;9.90;99.90
33831;DHT22;20137;48.834;8.732;2023-04-24T07:11:35;10.10;99.90
33831;DHT22;20137;48.834;8.732;2023-04-24T07:14:00;9.90;99.90
33831;DHT22;20137;48.834;8.732;2023-04-24T07:16:26;9.90;99.90
33831;DHT22;20137;48.834;8.732;2023-04-24T07:18:52;10.00;99.90
33831;DHT22;20137;48.834;8.732;2023-04-24T07:21:18;10.10;99.90
33831;DHT22;20137;48.834;8.732;2023-04-24T07:23:43;10.20;99.90
33831;DHT22;20137;48.834;8.732;2023-04-24T07:26:09;10.20;99.90
33831;DHT22;20137;48.834;8.732;2023-04-24T07:28:35;10.30;99.90
33831;DHT22;20137;48.834;8.732;2023-04-24T07:31:01;10.10;99.90
33831;DHT22;20137;48.834;8.732;2023-04-24T07:33:26;10.10;99.90
33831;DHT22;20137;48.834;8.732;2023-04-24T07:35:52;10.10;99.90
33831;DHT22;20137;48.834;8.732;2023-04-24T07:38:18;10.00;99.90
33831;DHT22;20137;48.834;8.732;2023-04-24T07:40:48;9.90;99.90
33831;DHT22;20137;48.834;8.732;2023-04-24T07:43:13;9.70;99.90
33831;DHT22;20137;48.834;8.732;2023-04-24T07:45:39;9.40;99.90
33831;DHT22;20137;48.834;8.732;2023-04-24T07:48:06;9.20;99.90
33831;DHT22;20137;48.834;8.732;2023-04-24T07:50:31;9.10;99.90
33831;DHT22;20137;48.834;8.732;2023-04-24T07:52:57;9.00;99.90
33831;DHT22;20137;48.834;8.732;2023-04-24T07:55:23;8.80;99.90
33831;DHT22;20137;48.834;8.732;2023-04-24T07:57:49;8.80;99.90
33831;DHT22;20137;48.834;8.732;2023-04-24T08:00:15;8.90;99.90
33831;DHT22;20137;48.834;8.732;2023-04-24T08:02:40;9.10;99.90
33831;DHT22;20137;48.834;8.732;2023-04-24T08:05:06;9.20;99.90
33831;DHT22;20137;48.834;8.732;2023-04-24T08:07:33;9.10;99.90
33831;DHT22;20137;48.834;8.732;2023-04-24T08:09:58;9.20;99.90
33831;DHT22;20137;48.834;8.732;2023-04-24T08:12:25;9.10;99.90
33831;DHT22;20137;48.834;8.732;2023-04-24T08:14:50;9.20;99.90
33831;DHT22;20137;48.834;8.732;2023-04-24T08:17:17;9.30;99.90
33831;DHT22;20137;48.834;8.732;2023-04-24T08:19:43;9.60;99.90
33831;DHT22;20137;48.834;8.732;2023-04-24T08:22:13;9.70;99.90
33831;DHT22;20137;48.834;8.732;2023-04-24T08:24:38;9.80;99.90
33831;DHT22;20137;48.834;8.732;2023-04-24T08:27:04;10.00;99.90
33831;DHT22;20137;48.834;8.732;2023-04-24T08:29:30;10.20;99.90
33831;DHT22;20137;48.834;8.732;2023-04-24T08:31:56;10.10;99.90
33831;DHT22;20137;48.834;8.732;2023-04-24T08:34:22;10.30;99.90
33831;DHT22;20137;48.834;8.732;2023-04-24T08:36:48;10.60;99.90
33831;DHT22;20137;48.834;8.732;2023-04-24T08:39:14;10.50;99.90
33831;DHT22;20137;48.834;8.732;2023-04-24T08:41:42;10.50;99.90
33831;DHT22;20137;48.834;8.732;2023-04-24T08:44:12;10.40;99.90
33831;DHT22;20137;48.834;8.732;2023-04-24T08:46:39;9.90;99.90
33831;DHT22;20137;48.834;8.732;2023-04-24T08:49:06;9.80;99.90
33831;DHT22;20137;48.834;8.732;2023-04-24T08:51:31;9.90;99.90
33831;DHT22;20137;48.834;8.732;2023-04-24T08:53:57;10.10;99.90
33831;DHT22;20137;48.834;8.732;2023-04-24T08:56:23;10.40;99.90
33831;DHT22;20137;48.834;8.732;2023-04-24T08:58:51;10.40;99.90
33831;DHT22;20137;48.834;8.732;2023-04-24T09:01:19;10.70;99.90
33831;DHT22;20137;48.834;8.732;2023-04-24T09:03:49;10.50;99.90
33831;DHT22;20137;48.834;8.732;2023-04-24T09:06:17;10.40;99.90
33831;DHT22;20137;48.834;8.732;2023-04-24T09:08:45;10.50;99.90
33831;DHT22;20137;48.834;8.732;2023-04-24T09:11:11;10.60;99.90
33831;DHT22;20137;48.834;8.732;2023-04-24T09:13:37;10.60;99.90
33831;DHT22;20137;48.834;8.732;2023-04-24T09:16:03;10.70;99.90
33831;DHT22;20137;48.834;8.732;2023-04-24T09:18:29;10.60;99.90
33831;DHT22;20137;48.834;8.732;2023-04-24T09:21:03;10.20;99.90
33831;DHT22;20137;48.834;8.732;2023-04-24T09:23:30;10.00;99.90
33831;DHT22;20137;48.834;8.732;2023-04-24T09:25:58;9.80;99.90
33831;DHT22;20137;48.834;8.732;2023-04-24T09:28:35;10.00;99.90
33831;DHT22;20137;48.834;8.732;2023-04-24T09:31:15;10.40;99.90
33831;DHT22;20137;48.834;8.732;2023-04-24T09:34:04;10.60;99.90
33831;DHT22;20137;48.834;8.732;2023-04-24T09:36:34;10.70;99.90
33831;DHT22;20137;48.834;8.732;2023-04-24T09:39:04;10.70;99.90
33831;DHT22;20137;48.834;8.732;2023-04-24T09:41:32;10.90;99.90
33831;DHT22;20137;48.834;8.732;2023-04-24T09:44:19;11.10;99.90
33831;DHT22;20137;48.834;8.732;2023-04-24T09:46:53;11.40;99.90
33831;DHT22;20137;48.834;8.732;2023-04-24T09:49:23;11.60;99.90
33831;DHT22;20137;48.834;8.732;2023-04-24T09:51:50;11.20;99.90
33831;DHT22;20137;48.834;8.732;2023-04-24T09:54:18;11.00;99.90
33831;DHT22;20137;48.834;8.732;2023-04-24T09:56:49;11.30;99.90
33831;DHT22;20137;48.834;8.732;2023-04-24T09:59:19;11.20;99.90
33831;DHT22;20137;48.834;8.732;2023-04-24T10:01:45;11.10;99.90
33831;DHT22;20137;48.834;8.732;2023-04-24T10:04:22;10.60;99.90
33831;DHT22;20137;48.834;8.732;2023-04-24T10:06:51;10.40;99.90
33831;DHT22;20137;48.834;8.732;2023-04-24T10:09:25;10.50;99.90
33831;DHT22;20137;48.834;8.732;2023-04-24T10:11:53;10.50;99.90
33831;DHT22;20137;48.834;8.732;2023-04-24T10:14:23;10.70;99.90
33831;DHT22;20137;48.834;8.732;2023-04-24T10:16:50;10.80;99.90
33831;DHT22;20137;48.834;8.732;2023-04-24T10:19:18;10.80;99.90
33831;DHT22;20137;48.834;8.732;2023-04-24T10:21:45;10.70;99.90
33831;DHT22;20137;48.834;8.732;2023-04-24T10:24:17;10.60;99.90
33831;DHT22;20137;48.834;8.732;2023-04-24T10:26:46;10.30;99.90
33831;DHT22;20137;48.834;8.732;2023-04-24T10:29:16;9.90;99.90
33831;DHT22;20137;48.834;8.732;2023-04-24T10:31:42;9.70;99.90
33831;DHT22;20137;48.834;8.732;2023-04-24T10:34:11;9.60;99.90
33831;DHT22;20137;48.834;8.732;2023-04-24T10:36:39;9.50;99.90
33831;DHT22;20137;48.834;8.732;2023-04-24T10:39:09;9.30;99.90
33831;DHT22;20137;48.834;8.732;2023-04-24T10:41:37;9.30;99.90
33831;DHT22;20137;48.834;8.732;2023-04-24T10:44:09;9.40;99.90
33831;DHT22;20137;48.834;8.732;2023-04-24T10:46:36;9.40;99.90
33831;DHT22;20137;48.834;8.732;2023-04-24T10:49:06;9.60;99.90
33831;DHT22;20137;48.834;8.732;2023-04-24T10:51:51;10.10;99.90
33831;DHT22;20137;48.834;8.732;2023-04-24T10:54:35;10.50;99.90
33831;DHT22;20137;48.834;8.732;2023-04-24T10:59:47;11.80;99.90
33831;DHT22;20137;48.834;8.732;2023-04-24T11:02:16;11.50;99.90
33831;DHT22;20137;48.834;8.732;2023-04-24T11:04:42;11.20;99.90
33831;DHT22;20137;48.834;8.732;2023-04-24T11:07:12;11.30;99.90
33831;DHT22;20137;48.834;8.732;2023-04-24T11:09:38;11.70;99.90
33831;DHT22;20137;48.834;8.732;2023-04-24T11:12:08;11.40;99.90
33831;DHT22;20137;48.834;8.732;2023-04-24T11:17:31;9.60;99.90
33831;DHT22;20137;48.834;8.732;2023-04-24T11:22:39;10.40;99.90
33831;DHT22;20137;48.834;8.732;2023-04-24T11:25:09;10.90;99.90
33831;DHT22;20137;48.834;8.732;2023-04-24T11:27:44;11.30;99.90
33831;DHT22;20137;48.834;8.732;2023-04-24T11:30:11;11.80;99.90
33831;DHT22;20137;48.834;8.732;2023-04-24T11:32:39;12.30;99.90
33831;DHT22;20137;48.834;8.732;2023-04-24T11:35:16;12.40;99.90
33831;DHT22;20137;48.834;8.732;2023-04-24T11:37:43;12.30;99.90
33831;DHT22;20137;48.834;8.732;2023-04-24T11:40:14;12.30;99.90
33831;DHT22;20137;48.834;8.732;2023-04-24T11:42:52;11.50;99.90
33831;DHT22;20137;48.834;8.732;2023-04-24T11:45:23;11.30;99.90
33831;DHT22;20137;48.834;8.732;2023-04-24T11:47:49;11.10;99.90
33831;DHT22;20137;48.834;8.732;2023-04-24T11:50:17;10.90;99.90
33831;DHT22;20137;48.834;8.732;2023-04-24T11:52:44;10.90;99.90
33831;DHT22;20137;48.834;8.732;2023-04-24T11:57:48;11.30;99.90
33831;DHT22;20137;48.834;8.732;2023-04-24T12:00:18;11.50;99.90
33831;DHT22;20137;48.834;8.732;2023-04-24T12:02:44;11.50;99.90
33831;DHT22;20137;48.834;8.732;2023-04-24T12:05:24;11.20;99.90
33831;DHT22;20137;48.834;8.732;2023-04-24T12:07:51;10.60;99.90
33831;DHT22;20137;48.834;8.732;2023-04-24T12:10:25;10.60;99.90
33831;DHT22;20137;48.834;8.732;2023-04-24T12:12:51;10.80;99.90
33831;DHT22;20137;48.834;8.732;2023-04-24T12:15:18;11.10;99.90
33831;DHT22;20137;48.834;8.732;2023-04-24T12:17:45;11.00;99.90
33831;DHT22;20137;48.834;8.732;2023-04-24T12:20:12;10.10;99.90
33831;DHT22;20137;48.834;8.732;2023-04-24T12:25:16;9.20;99.90
33831;DHT22;20137;48.834;8.732;2023-04-24T12:27:44;9.50;99.90
33831;DHT22;20137;48.834;8.732;2023-04-24T12:30:12;9.80;99.90
33831;DHT22;20137;48.834;8.732;2023-04-24T12:32:49;10.00;99.90
33831;DHT22;20137;48.834;8.732;2023-04-24T12:35:23;10.40;99.90
33831;DHT22;20137;48.834;8.732;2023-04-24T12:37:49;10.30;99.90
33831;DHT22;20137;48.834;8.732;2023-04-24T12:40:16;10.00;99.90
33831;DHT22;20137;48.834;8.732;2023-04-24T12:45:12;9.90;99.90
33831;DHT22;20137;48.834;8.732;2023-04-24T12:47:39;10.00;99.90
33831;DHT22;20137;48.834;8.732;2023-04-24T12:50:07;10.20;99.90
33831;DHT22;20137;48.834;8.732;2023-04-24T12:52:32;10.30;99.90
33831;DHT22;20137;48.834;8.732;2023-04-24T12:55:00;10.50;99.90
33831;DHT22;20137;48.834;8.732;2023-04-24T12:57:27;10.70;99.90
33831;DHT22;20137;48.834;8.732;2023-04-24T12:59:55;10.70;99.90
33831;DHT22;20137;48.834;8.732;2023-04-24T13:02:25;10.80;99.90
33831;DHT22;20137;48.834;8.732;2023-04-24T13:04:52;10.60;99.90
33831;DHT22;20137;48.834;8.732;2023-04-24T13:07:17;10.80;99.90
33831;DHT22;20137;48.834;8.732;2023-04-24T13:09:44;11.10;99.90
33831;DHT22;20137;48.834;8.732;2023-04-24T13:12:11;11.20;99.90
33831;DHT22;20137;48.834;8.732;2023-04-24T13:14:36;11.50;99.90
33831;DHT22;20137;48.834;8.732;2023-04-24T13:17:03;11.10;99.90
33831;DHT22;20137;48.834;8.732;2023-04-24T13:19:29;11.20;99.90
33831;DHT22;20137;48.834;8.732;2023-04-24T13:21:55;11.30;99.90
33831;DHT22;20137;48.834;8.732;2023-04-24T13:24:22;11.60;99.90
33831;DHT22;20137;48.834;8.732;2023-04-24T13:26:52;11.60;99.90
33831;DHT22;20137;48.834;8.732;2023-04-24T13:29:17;11.30;99.90
33831;DHT22;20137;48.834;8.732;2023-04-24T13:31:43;11.20;99.90
33831;DHT22;20137;48.834;8.732;2023-04-24T13:34:09;11.40;99.90
33831;DHT22;20137;48.834;8.732;2023-04-24T13:36:35;11.40;99.90
33831;DHT22;20137;48.834;8.732;2023-04-24T13:39:02;11.60;99.90
33831;DHT22;20137;48.834;8.732;2023-04-24T13:41:30;11.50;99.90
33831;DHT22;20137;48.834;8.732;2023-04-24T13:43:56;11.40;99.90
33831;DHT22;20137;48.834;8.732;2023-04-24T13:46:21;11.30;99.90
33831;DHT22;20137;48.834;8.732;2023-04-24T13:48:47;11.50;99.90
33831;DHT22;20137;48.834;8.732;2023-04-24T13:51:13;11.60;99.90
33831;DHT22;20137;48.834;8.732;2023-04-24T13:53:38;11.70;99.90
33831;DHT22;20137;48.834;8.732;2023-04-24T13:56:05;11.60;99.90
33831;DHT22;20137;48.834;8.732;2023-04-24T13:58:34;11.30;99.90
33831;DHT22;20137;48.834;8.732;2023-04-24T14:01:02;11.10;99.90
33831;DHT22;20137;48.834;8.732;2023-04-24T14:03:28;10.70;99.90
33831;DHT22;20137;48.834;8.732;2023-04-24T14:05:54;10.80;99.90
33831;DHT22;20137;48.834;8.732;2023-04-24T14:08:20;10.80;99.90
33831;DHT22;20137;48.834;8.732;2023-04-24T14:10:45;10.70;99.90
33831;DHT22;20137;48.834;8.732;2023-04-24T14:13:11;10.90;99.90
33831;DHT22;20137;48.834;8.732;2023-04-24T14:15:37;10.90;99.90
33831;DHT22;20137;48.834;8.732;2023-04-24T14:18:03;11.00;99.90
33831;DHT22;20137;48.834;8.732;2023-04-24T14:20:29;11.30;99.90
33831;DHT22;20137;48.834;8.732;2023-04-24T14:22:55;11.20;99.90
33831;DHT22;20137;48.834;8.732;2023-04-24T14:25:20;11.40;99.90
33831;DHT22;20137;48.834;8.732;2023-04-24T14:27:47;11.70;99.90
33831;DHT22;20137;48.834;8.732;2023-04-24T14:30:13;12.00;99.90
33831;DHT22;20137;48.834;8.732;2023-04-24T14:32:40;12.00;99.90
33831;DHT22;20137;48.834;8.732;2023-04-24T14:35:07;11.80;99.90
33831;DHT22;20137;48.834;8.732;2023-04-24T14:37:33;11.60;99.90
33831;DHT22;20137;48.834;8.732;2023-04-24T14:39:59;11.50;99.90
33831;DHT22;20137;48.834;8.732;2023-04-24T14:42:24;11.20;99.90
33831;DHT22;20137;48.834;8.732;2023-04-24T14:44:50;11.20;99.90
33831;DHT22;20137;48.834;8.732;2023-04-24T14:47:16;11.10;99.90
33831;DHT22;20137;48.834;8.732;2023-04-24T14:49:47;10.90;99.90
33831;DHT22;20137;48.834;8.732;2023-04-24T14:52:13;10.70;99.90
33831;DHT22;20137;48.834;8.732;2023-04-24T14:54:39;10.40;99.90
33831;DHT22;20137;48.834;8.732;2023-04-24T14:57:04;10.20;99.90
33831;DHT22;20137;48.834;8.732;2023-04-24T14:59:30;10.20;99.90
33831;DHT22;20137;48.834;8.732;2023-04-24T15:01:57;10.10;99.90
33831;DHT22;20137;48.834;8.732;2023-04-24T15:04:26;10.00;99.90
33831;DHT22;20137;48.834;8.732;2023-04-24T15:06:55;10.20;99.90
33831;DHT22;20137;48.834;8.732;2023-04-24T15:09:22;9.90;99.90
33831;DHT22;20137;48.834;8.732;2023-04-24T15:11:49;10.00;99.90
33831;DHT22;20137;48.834;8.732;2023-04-24T15:14:15;10.00;99.90
33831;DHT22;20137;48.834;8.732;2023-04-24T15:16:41;10.20;99.90
33831;DHT22;20137;48.834;8.732;2023-04-24T15:19:07;10.40;99.90
33831;DHT22;20137;48.834;8.732;2023-04-24T15:21:33;10.30;99.90
33831;DHT22;20137;48.834;8.732;2023-04-24T15:23:58;10.30;99.90
33831;DHT22;20137;48.834;8.732;2023-04-24T15:26:24;10.40;99.90
33831;DHT22;20137;48.834;8.732;2023-04-24T15:28:51;10.50;99.90
33831;DHT22;20137;48.834;8.732;2023-04-24T15:31:17;10.50;99.90
33831;DHT22;20137;48.834;8.732;2023-04-24T15:33:43;10.60;99.90
33831;DHT22;20137;48.834;8.732;2023-04-24T15:36:09;10.80;99.90
33831;DHT22;20137;48.834;8.732;2023-04-24T15:38:35;10.80;99.90
33831;DHT22;20137;48.834;8.732;2023-04-24T15:41:00;10.80;99.90
33831;DHT22;20137;48.834;8.732;2023-04-24T15:43:26;10.90;99.90
33831;DHT22;20137;48.834;8.732;2023-04-24T15:45:54;11.00;99.90
33831;DHT22;20137;48.834;8.732;2023-04-24T15:48:20;11.10;99.90
33831;DHT22;20137;48.834;8.732;2023-04-24T15:50:46;11.20;99.90